createdAt,value
2019-03-25T00:01:05.206Z,98561.02
2019-03-25T00:03:35.944Z,98558.97
2019-03-25T00:06:06.867Z,98564.22
2019-03-25T00:08:37.601Z,98558.34
2019-03-25T00:11:08.567Z,98560.26
2019-03-25T00:13:39.374Z,98560.25
2019-03-25T00:16:10.359Z,98549.48
2019-03-25T00:18:41.316Z,98556.79
2019-03-25T00:21:12.136Z,98555.67
2019-03-25T00:23:42.931Z,98551.88
2019-03-25T00:26:13.674Z,98549.80
2019-03-25T00:28:44.494Z,98553.92
2019-03-25T00:31:15.299Z,98543.29
2019-03-25T00:33:46.398Z,98550.44
2019-03-25T00:36:17.256Z,98555.84
2019-03-25T00:38:48.067Z,98551.39
2019-03-25T00:41:18.951Z,98548.55
2019-03-25T00:43:49.757Z,98551.72
2019-03-25T00:46:20.842Z,98551.23
2019-03-25T00:48:51.634Z,98545.69
2019-03-25T00:51:22.639Z,98544.27
2019-03-25T00:53:53.383Z,98540.95
2019-03-25T00:56:24.235Z,98541.25
2019-03-25T00:58:54.966Z,98543.81
2019-03-25T01:01:26.352Z,98541.25
2019-03-25T01:03:57.142Z,98538.72
2019-03-25T01:06:27.968Z,98540.00
2019-03-25T01:08:58.688Z,98547.94
2019-03-25T01:11:29.542Z,98539.36
2019-03-25T01:14:00.289Z,98541.89
2019-03-25T01:16:31.360Z,98548.56
2019-03-25T01:19:02.093Z,98542.22
2019-03-25T01:21:32.857Z,98534.12
2019-03-25T01:24:03.828Z,98534.30
2019-03-25T01:26:34.701Z,98543.96
2019-03-25T01:29:05.506Z,98542.22
2019-03-25T01:31:36.351Z,98534.59
2019-03-25T01:34:07.145Z,98538.56
2019-03-25T01:36:38.066Z,98541.90
2019-03-25T01:39:09.774Z,98539.35
2019-03-25T01:41:40.576Z,98533.16
2019-03-25T01:44:11.300Z,98539.98
2019-03-25T01:46:42.047Z,98534.75
2019-03-25T01:49:12.860Z,98539.34
2019-03-25T01:51:44.093Z,98542.84
2019-03-25T01:54:14.794Z,98536.64
2019-03-25T01:56:45.538Z,98539.34
2019-03-25T01:59:16.267Z,98539.01
2019-03-25T02:01:47.020Z,98544.09
2019-03-25T02:04:17.749Z,98545.67
2019-03-25T02:06:48.539Z,98541.55
2019-03-25T02:09:19.245Z,98537.41
2019-03-25T02:11:50.019Z,98533.59
2019-03-25T02:14:20.972Z,98528.53
2019-03-25T02:16:51.745Z,98527.89
2019-03-25T02:19:22.462Z,98530.42
2019-03-25T02:21:53.669Z,98531.97
2019-03-25T02:24:24.447Z,98531.02
2019-03-25T02:26:55.252Z,98526.57
2019-03-25T02:29:26.102Z,98533.05
2019-03-25T02:31:56.838Z,98535.72
2019-03-25T02:34:27.638Z,98534.77
2019-03-25T02:36:58.458Z,98529.05
2019-03-25T02:39:29.173Z,98527.47
2019-03-25T02:42:00.026Z,98527.16
2019-03-25T02:44:30.793Z,98522.09
2019-03-25T02:47:01.569Z,98516.89
2019-03-25T02:49:32.621Z,98510.39
2019-03-25T02:52:03.369Z,98512.28
2019-03-25T02:54:34.077Z,98510.08
2019-03-25T02:57:04.946Z,98512.76
2019-03-25T02:59:35.697Z,98517.34
2019-03-25T03:02:07.466Z,98510.36
2019-03-25T03:04:39.196Z,98514.95
2019-03-25T03:07:11.083Z,98526.82
2019-03-25T03:09:42.671Z,98519.63
2019-03-25T03:12:13.510Z,98511.83
2019-03-25T03:14:44.332Z,98511.78
2019-03-25T03:17:15.350Z,98513.55
2019-03-25T03:19:46.451Z,98513.59
2019-03-25T03:22:17.170Z,98515.41
2019-03-25T03:24:47.869Z,98514.81
2019-03-25T03:27:18.646Z,98512.56
2019-03-25T03:29:49.379Z,98513.84
2019-03-25T03:32:20.133Z,98509.80
2019-03-25T03:34:50.864Z,98516.25
2019-03-25T03:37:21.645Z,98516.85
2019-03-25T03:39:52.688Z,98515.98
2019-03-25T03:42:23.521Z,98514.54
2019-03-25T03:44:54.216Z,98510.61
2019-03-25T03:47:24.962Z,98513.22
2019-03-25T03:49:55.928Z,98511.67
2019-03-25T03:52:26.932Z,98508.51
2019-03-25T03:54:57.897Z,98512.09
2019-03-25T03:57:29.506Z,98512.43
2019-03-25T04:00:00.692Z,98514.66
2019-03-25T04:02:31.772Z,98514.64
2019-03-25T04:05:02.469Z,98516.28
2019-03-25T04:07:33.264Z,98509.36
2019-03-25T04:10:04.105Z,98511.61
2019-03-25T04:12:35.307Z,98510.87
2019-03-25T04:15:06.285Z,98509.00
2019-03-25T04:17:37.016Z,98507.44
2019-03-25T04:20:08.516Z,98515.98
2019-03-25T04:22:39.244Z,98513.83
2019-03-25T04:25:10.182Z,98505.59
2019-03-25T04:27:40.922Z,98506.65
2019-03-25T04:30:12.057Z,98509.40
2019-03-25T04:32:42.757Z,98509.09
2019-03-25T04:35:13.553Z,98513.16
2019-03-25T04:37:44.325Z,98510.18
2019-03-25T04:40:15.230Z,98505.42
2019-03-25T04:42:46.020Z,98505.61
2019-03-25T04:45:16.933Z,98512.31
2019-03-25T04:47:47.655Z,98514.89
2019-03-25T04:50:18.384Z,98516.76
2019-03-25T04:52:49.134Z,98522.20
2019-03-25T04:55:20.094Z,98518.38
2019-03-25T04:57:50.859Z,98521.87
2019-03-25T05:00:39.140Z,98519.84
2019-03-25T05:03:09.986Z,98519.91
2019-03-25T05:05:40.673Z,98515.22
2019-03-25T05:08:11.863Z,98524.01
2019-03-25T05:10:43.019Z,98521.61
2019-03-25T05:13:13.873Z,98523.09
2019-03-25T05:15:44.660Z,98517.68
2019-03-25T05:18:15.413Z,98517.20
2019-03-25T05:20:46.349Z,98516.52
2019-03-25T05:23:17.089Z,98516.40
2019-03-25T05:25:47.801Z,98521.91
2019-03-25T05:28:18.676Z,98527.81
2019-03-25T05:30:49.400Z,98524.37
2019-03-25T05:33:20.167Z,98519.86
2019-03-25T05:35:50.884Z,98525.56
2019-03-25T05:38:21.730Z,98525.71
2019-03-25T05:40:52.471Z,98527.88
2019-03-25T05:43:23.213Z,98523.82
2019-03-25T05:45:53.921Z,98526.39
2019-03-25T05:48:25.307Z,98528.86
2019-03-25T05:50:56.023Z,98523.50
2019-03-25T05:53:26.867Z,98525.55
2019-03-25T05:55:57.579Z,98524.81
2019-03-25T05:58:28.340Z,98527.41
2019-03-25T06:00:59.078Z,98530.78
2019-03-25T06:03:30.010Z,98535.30
2019-03-25T06:06:00.757Z,98525.23
2019-03-25T06:08:31.499Z,98529.27
2019-03-25T06:11:02.248Z,98529.92
2019-03-25T06:13:33.003Z,98529.40
2019-03-25T06:16:04.140Z,98529.13
2019-03-25T06:18:34.872Z,98525.42
2019-03-25T06:21:05.667Z,98521.11
2019-03-25T06:23:36.407Z,98523.69
2019-03-25T06:26:07.197Z,98522.89
2019-03-25T06:28:38.008Z,98523.18
2019-03-25T06:31:08.792Z,98527.94
2019-03-25T06:33:39.526Z,98528.11
2019-03-25T06:36:10.260Z,98522.80
2019-03-25T06:38:40.978Z,98523.16
2019-03-25T06:41:12.007Z,98524.55
2019-03-25T06:43:43.032Z,98527.56
2019-03-25T06:46:13.784Z,98521.00
2019-03-25T06:48:44.580Z,98527.75
2019-03-25T06:51:15.300Z,98532.47
2019-03-25T06:53:46.035Z,98523.46
2019-03-25T06:56:16.800Z,98526.82
2019-03-25T06:58:48.302Z,98530.59
2019-03-25T07:01:19.401Z,98532.94
2019-03-25T07:03:50.091Z,98528.64
2019-03-25T07:06:21.003Z,98535.48
2019-03-25T07:08:51.726Z,98532.89
2019-03-25T07:11:22.550Z,98533.23
2019-03-25T07:13:53.627Z,98534.27
2019-03-25T07:16:24.370Z,98536.27
2019-03-25T07:18:55.129Z,98534.84
2019-03-25T07:21:26.341Z,98546.97
2019-03-25T07:23:57.028Z,98539.95
2019-03-25T07:26:27.809Z,98528.64
2019-03-25T07:28:58.702Z,98535.28
2019-03-25T07:31:29.565Z,98535.83
2019-03-25T07:34:00.268Z,98535.79
2019-03-25T07:36:31.234Z,98534.59
2019-03-25T07:39:02.001Z,98532.80
2019-03-25T07:41:32.757Z,98537.15
2019-03-25T07:44:03.588Z,98539.98
2019-03-25T07:46:34.344Z,98537.11
2019-03-25T07:49:05.506Z,98526.48
2019-03-25T07:51:36.288Z,98522.15
2019-03-25T07:54:07.236Z,98506.68
2019-03-25T07:56:37.994Z,98505.11
2019-03-25T07:59:08.940Z,98503.81
2019-03-25T08:01:39.793Z,98513.91
2019-03-25T08:04:10.601Z,98504.89
2019-03-25T08:06:41.335Z,98506.64
2019-03-25T08:09:12.150Z,98501.78
2019-03-25T08:11:42.909Z,98513.18
2019-03-25T08:14:16.689Z,98511.61
2019-03-25T08:16:47.455Z,98505.30
2019-03-25T08:19:18.157Z,98507.31
2019-03-25T08:21:48.982Z,98508.94
2019-03-25T08:24:19.725Z,98502.78
2019-03-25T08:26:50.557Z,98511.42
2019-03-25T08:29:21.271Z,98520.28
2019-03-25T08:31:52.200Z,98509.03
2019-03-25T08:34:23.064Z,98513.33
2019-03-25T08:36:53.905Z,98514.11
2019-03-25T08:39:24.989Z,98510.67
2019-03-25T08:41:55.732Z,98515.66
2019-03-25T08:44:26.481Z,98513.44
2019-03-25T08:46:57.201Z,98510.39
2019-03-25T08:49:27.899Z,98512.73
2019-03-25T08:51:58.734Z,98509.09
2019-03-25T08:54:29.439Z,98510.20
2019-03-25T08:57:00.165Z,98506.87
2019-03-25T08:59:30.905Z,98502.47
2019-03-25T09:02:01.736Z,98498.71
2019-03-25T09:04:32.453Z,98506.83
2019-03-25T09:07:03.457Z,98508.02
2019-03-25T09:09:34.151Z,98519.11
2019-03-25T09:12:05.295Z,98513.73
2019-03-25T09:14:36.065Z,98509.13
2019-03-25T09:17:07.230Z,98516.42
2019-03-25T09:19:37.918Z,98521.61
2019-03-25T09:22:09.103Z,98519.69
2019-03-25T09:24:39.829Z,98506.05
2019-03-25T09:27:10.771Z,98509.04
2019-03-25T09:29:41.627Z,98500.22
2019-03-25T09:32:12.441Z,98503.20
2019-03-25T09:34:43.445Z,98494.39
2019-03-25T09:37:14.536Z,98505.49
2019-03-25T09:39:45.211Z,98498.48
2019-03-25T09:42:16.023Z,98489.27
2019-03-25T09:44:47.334Z,98489.64
2019-03-25T09:47:18.141Z,98512.01
2019-03-25T09:49:49.035Z,98502.48
2019-03-25T09:52:20.113Z,98501.83
2019-03-25T09:54:50.840Z,98491.81
2019-03-25T09:57:21.718Z,98489.11
2019-03-25T09:59:52.520Z,98482.12
2019-03-25T10:02:23.387Z,98486.39
2019-03-25T10:04:54.238Z,98480.70
2019-03-25T10:07:28.266Z,98476.47
2019-03-25T10:09:58.792Z,98495.53
2019-03-25T10:12:29.523Z,98494.28
2019-03-25T10:15:00.347Z,98517.48
2019-03-25T10:17:31.033Z,98505.77
2019-03-25T10:20:02.653Z,98501.01
2019-03-25T10:22:33.369Z,98515.58
2019-03-25T10:25:04.455Z,98530.02
2019-03-25T10:27:35.183Z,98519.08
2019-03-25T10:30:06.891Z,98525.91
2019-03-25T10:32:37.668Z,98522.58
2019-03-25T10:35:09.407Z,98531.44
2019-03-25T10:37:40.279Z,98532.08
2019-03-25T10:40:11.722Z,98526.94
2019-03-25T10:42:42.977Z,98528.16
2019-03-25T10:45:14.834Z,98515.23
2019-03-25T10:47:45.905Z,98520.62
2019-03-25T10:50:17.472Z,98520.34
2019-03-25T10:52:48.197Z,98514.55
2019-03-25T10:55:19.007Z,98512.79
2019-03-25T10:57:49.879Z,98505.90
2019-03-25T11:00:21.525Z,98510.62
2019-03-25T11:02:52.321Z,98498.53
2019-03-25T11:05:23.163Z,98497.67
2019-03-25T11:07:54.869Z,98492.55
2019-03-25T11:10:26.003Z,98504.23
2019-03-25T11:12:56.715Z,98495.92
2019-03-25T11:15:27.617Z,98494.02
2019-03-25T11:17:58.456Z,98492.80
2019-03-25T11:20:29.387Z,98499.94
2019-03-25T11:23:00.643Z,98500.24
2019-03-25T11:25:31.888Z,98493.09
2019-03-25T11:28:02.611Z,98481.11
2019-03-25T11:30:59.868Z,98478.52
2019-03-25T11:33:30.859Z,98479.32
2019-03-25T11:36:02.815Z,98478.69
2019-03-25T11:38:33.824Z,98477.72
2019-03-25T11:41:04.811Z,98476.73
2019-03-25T11:43:36.181Z,98500.19
2019-03-25T11:46:06.947Z,98524.55
2019-03-25T11:48:37.709Z,98509.08
2019-03-25T11:51:08.452Z,98504.94
2019-03-25T11:53:39.212Z,98503.56
2019-03-25T11:56:10.112Z,98496.62
2019-03-25T11:58:41.388Z,98496.69
2019-03-25T12:01:12.207Z,98496.41
2019-03-25T12:03:43.291Z,98508.64
2019-03-25T12:06:14.150Z,98515.55
2019-03-25T12:08:44.963Z,98498.04
2019-03-25T12:11:15.756Z,98496.73
2019-03-25T12:13:46.565Z,98502.94
2019-03-25T12:16:17.344Z,98484.73
2019-03-25T12:18:48.077Z,98473.34
2019-03-25T12:21:18.918Z,98473.11
2019-03-25T12:23:49.651Z,98471.69
2019-03-25T12:26:20.350Z,98468.40
2019-03-25T12:28:51.193Z,98462.78
2019-03-25T12:31:22.029Z,98457.81
2019-03-25T12:33:53.022Z,98453.00
2019-03-25T12:36:23.851Z,98468.20
2019-03-25T12:38:54.764Z,98485.19
2019-03-25T12:41:25.574Z,98476.80
2019-03-25T12:43:56.326Z,98484.52
2019-03-25T12:46:27.052Z,98473.36
2019-03-25T12:48:57.823Z,98480.14
2019-03-25T12:51:28.661Z,98475.34
2019-03-25T12:53:59.473Z,98473.31
2019-03-25T12:56:30.911Z,98465.59
2019-03-25T12:59:01.726Z,98462.88
2019-03-25T13:01:32.437Z,98466.39
2019-03-25T13:04:03.428Z,98461.30
2019-03-25T13:06:34.180Z,98472.39
2019-03-25T13:09:06.790Z,98471.06
2019-03-25T13:11:37.567Z,98524.23
2019-03-25T13:14:08.446Z,98533.91
2019-03-25T13:16:39.213Z,98531.45
2019-03-25T13:19:10.007Z,98527.64
2019-03-25T13:21:40.678Z,98512.19
2019-03-25T13:24:11.475Z,98508.56
2019-03-25T13:26:42.148Z,98479.80
2019-03-25T13:29:13.002Z,98467.20
2019-03-25T13:31:43.700Z,98474.84
2019-03-25T13:34:14.390Z,98480.08
2019-03-25T13:36:45.203Z,98482.40
2019-03-25T13:39:16.448Z,98470.62
2019-03-25T13:41:47.158Z,98470.45
2019-03-25T13:44:17.917Z,98463.94
2019-03-25T13:46:48.676Z,98462.55
2019-03-25T13:49:19.439Z,98463.16
2019-03-25T13:51:50.946Z,98463.95
2019-03-25T13:54:21.697Z,98457.33
2019-03-25T13:56:52.409Z,98459.25
2019-03-25T13:59:23.176Z,98455.56
2019-03-25T14:01:53.994Z,98452.80
2019-03-25T14:04:25.019Z,98453.06
2019-03-25T14:06:55.705Z,98452.13
2019-03-25T14:09:26.438Z,98443.72
2019-03-25T14:11:57.177Z,98442.56
2019-03-25T14:14:27.953Z,98439.91
2019-03-25T14:16:59.045Z,98430.99
2019-03-25T14:19:29.834Z,98448.29
2019-03-25T14:22:00.607Z,98452.97
2019-03-25T14:24:31.506Z,98464.69
2019-03-25T14:27:02.268Z,98514.84
2019-03-25T14:29:32.979Z,98539.00
2019-03-25T14:32:03.648Z,98626.16
2019-03-25T14:34:44.242Z,98594.00
2019-03-25T14:37:07.451Z,98584.05
2019-03-25T14:39:38.163Z,98594.54
2019-03-25T14:42:08.906Z,98596.84
2019-03-25T14:44:39.653Z,98583.54
2019-03-25T14:47:10.500Z,98580.66
2019-03-25T14:49:41.603Z,98569.25
2019-03-25T14:52:12.330Z,98554.98
2019-03-25T14:54:42.992Z,98549.29
2019-03-25T14:57:13.859Z,98538.80
2019-03-25T14:59:44.604Z,98536.69
2019-03-25T15:02:15.617Z,98540.38
2019-03-25T15:04:46.328Z,98544.36
2019-03-25T15:07:17.147Z,98545.64
2019-03-25T15:09:47.885Z,98538.33
2019-03-25T15:12:19.480Z,98544.42
2019-03-25T15:14:50.211Z,98540.59
2019-03-25T15:17:20.899Z,98541.12
2019-03-25T15:19:51.621Z,98545.20
2019-03-25T15:22:23.156Z,98538.55
2019-03-25T15:24:53.875Z,98536.28
2019-03-25T15:27:24.670Z,98528.03
2019-03-25T15:29:55.445Z,98538.91
2019-03-25T15:32:26.175Z,98540.06
2019-03-25T15:34:56.980Z,98538.98
2019-03-25T15:37:27.739Z,98544.42
2019-03-25T15:39:58.638Z,98546.61
2019-03-25T15:42:29.343Z,98543.60
2019-03-25T15:45:00.199Z,98548.70
2019-03-25T15:47:31.137Z,98546.79
2019-03-25T15:50:01.943Z,98550.53
2019-03-25T15:52:32.726Z,98544.55
2019-03-25T15:55:03.471Z,98548.69
2019-03-25T15:57:34.201Z,98543.59
2019-03-25T16:00:07.364Z,98547.97
2019-03-25T16:02:38.119Z,98546.00
2019-03-25T16:05:08.915Z,98547.57
2019-03-25T16:07:39.696Z,98551.67
2019-03-25T16:10:11.210Z,98551.38
2019-03-25T16:12:42.296Z,98546.00
2019-03-25T16:15:13.680Z,98544.03
2019-03-25T16:17:44.478Z,98528.86
2019-03-25T16:20:15.653Z,98534.88
2019-03-25T16:22:46.625Z,98534.79
2019-03-25T16:25:28.958Z,98551.56
2019-03-25T16:28:00.300Z,98562.43
2019-03-25T16:30:31.003Z,98576.92
2019-03-25T16:33:01.678Z,98582.27
2019-03-25T16:35:32.444Z,98580.61
2019-03-25T16:38:03.947Z,98586.70
2019-03-25T16:40:34.923Z,98597.40
2019-03-25T16:43:06.025Z,98616.23
2019-03-25T16:45:36.828Z,98635.91
2019-03-25T16:48:07.617Z,98640.53
2019-03-25T16:50:38.325Z,98638.38
2019-03-25T16:53:09.322Z,98641.97
2019-03-25T16:55:40.934Z,98639.22
2019-03-25T16:58:11.730Z,98646.56
2019-03-25T17:00:42.465Z,98644.23
2019-03-25T17:03:13.823Z,98644.03
2019-03-25T17:05:45.460Z,98659.87
2019-03-25T17:08:16.233Z,98659.89
2019-03-25T17:10:46.950Z,98660.53
2019-03-25T17:13:17.699Z,98652.26
2019-03-25T17:15:48.483Z,98651.06
2019-03-25T17:18:19.903Z,98655.23
2019-03-25T17:20:50.733Z,98660.55
2019-03-25T17:23:21.695Z,98660.23
2019-03-25T17:25:53.337Z,98658.91
2019-03-25T17:28:24.231Z,98656.53
2019-03-25T17:30:55.956Z,98659.89
2019-03-25T17:33:26.989Z,98666.31
2019-03-25T17:35:57.680Z,98659.37
2019-03-25T17:38:28.725Z,98664.80
2019-03-25T17:40:59.427Z,98668.72
2019-03-25T17:43:30.215Z,98670.27
2019-03-25T17:46:01.153Z,98669.46
2019-03-25T17:48:31.874Z,98666.36
2019-03-25T17:51:02.693Z,98673.11
2019-03-25T17:53:33.414Z,98678.73
2019-03-25T17:56:04.569Z,98683.33
2019-03-25T17:58:35.673Z,98692.47
2019-03-25T18:01:31.801Z,98689.01
2019-03-25T18:03:56.284Z,98693.11
2019-03-25T18:06:27.299Z,98690.62
2019-03-25T18:08:58.412Z,98686.46
2019-03-25T18:11:29.202Z,98678.25
2019-03-25T18:14:00.808Z,98678.25
2019-03-25T18:16:31.751Z,98683.47
2019-03-25T18:19:02.838Z,98685.15
2019-03-25T18:21:33.604Z,98695.02
2019-03-25T18:24:05.328Z,98696.41
2019-03-25T18:26:36.115Z,98703.39
2019-03-25T18:29:07.008Z,98705.70
2019-03-25T18:31:43.177Z,98709.02
2019-03-25T18:34:10.507Z,98714.81
2019-03-25T18:36:42.252Z,98714.39
2019-03-25T18:39:12.997Z,98712.02
2019-03-25T18:41:43.865Z,98716.56
2019-03-25T18:44:15.425Z,98718.42
2019-03-25T18:46:46.086Z,98728.67
2019-03-25T18:49:17.351Z,98726.44
2019-03-25T18:51:48.300Z,98730.48
2019-03-25T18:54:19.158Z,98729.14
2019-03-25T18:56:49.868Z,98721.63
2019-03-25T18:59:20.634Z,98724.71
2019-03-25T19:01:54.763Z,98735.02
2019-03-25T19:04:24.029Z,98731.09
2019-03-25T19:06:54.884Z,98739.80
2019-03-25T19:09:25.732Z,98736.45
2019-03-25T19:11:56.737Z,98739.28
2019-03-25T19:14:27.564Z,98738.97
2019-03-25T19:16:58.353Z,98741.53
2019-03-25T19:19:29.112Z,98752.01
2019-03-25T19:21:59.797Z,98753.65
2019-03-25T19:24:30.545Z,98745.53
2019-03-25T19:27:01.678Z,98741.80
2019-03-25T19:29:32.485Z,98745.70
2019-03-25T19:32:06.875Z,98739.75
2019-03-25T19:34:35.679Z,98740.47
2019-03-25T19:37:06.360Z,98739.77
2019-03-25T19:39:37.179Z,98739.77
2019-03-25T19:42:08.244Z,98742.07
2019-03-25T19:44:39.011Z,98740.70
2019-03-25T19:47:09.766Z,98742.73
2019-03-25T19:49:40.635Z,98740.45
2019-03-25T19:52:11.355Z,98748.63
2019-03-25T19:54:42.141Z,98746.86
2019-03-25T19:57:12.878Z,98750.34
2019-03-25T19:59:43.608Z,98769.48
2019-03-25T20:02:19.355Z,98769.67
2019-03-25T20:04:47.066Z,98773.00
2019-03-25T20:07:18.057Z,98780.79
2019-03-25T20:09:48.924Z,98785.76
2019-03-25T20:12:19.642Z,98792.80
2019-03-25T20:14:50.447Z,98795.94
2019-03-25T20:17:21.779Z,98805.90
2019-03-25T20:19:52.534Z,98809.63
2019-03-25T20:22:23.491Z,98811.81
2019-03-25T20:24:54.316Z,98811.81
2019-03-25T20:27:25.022Z,98808.84
2019-03-25T20:29:55.828Z,98806.67
2019-03-25T20:32:31.508Z,98818.60
2019-03-25T20:34:58.956Z,98820.70
2019-03-25T20:37:29.657Z,98826.00
2019-03-25T20:40:00.525Z,98828.42
2019-03-25T20:42:31.599Z,98836.76
2019-03-25T20:45:02.374Z,98836.33
2019-03-25T20:47:33.069Z,98834.49
2019-03-25T20:50:03.845Z,98841.16
2019-03-25T20:52:34.788Z,98842.20
2019-03-25T20:55:05.951Z,98842.81
2019-03-25T20:57:37.397Z,98836.67
2019-03-25T21:00:10.093Z,98838.55
2019-03-25T21:02:45.229Z,98831.59
2019-03-25T21:05:13.519Z,98840.80
2019-03-25T21:07:47.393Z,98835.80
2019-03-25T21:10:19.412Z,98843.60
2019-03-25T21:12:50.123Z,98853.92
2019-03-25T21:15:21.524Z,98863.61
2019-03-25T21:17:52.270Z,98865.80
2019-03-25T21:20:23.129Z,98866.59
2019-03-25T21:22:54.043Z,98869.23
2019-03-25T21:25:24.910Z,98872.54
2019-03-25T21:27:55.734Z,98876.17
2019-03-25T21:30:28.311Z,98874.02
2019-03-25T21:32:59.532Z,98878.91
2019-03-25T21:35:30.569Z,98882.12
2019-03-25T21:38:01.287Z,98876.06
2019-03-25T21:40:32.092Z,98879.05
2019-03-25T21:43:03.538Z,98883.84
2019-03-25T21:45:34.421Z,98887.95
2019-03-25T21:48:11.527Z,98885.53
2019-03-25T21:50:42.858Z,98886.33
2019-03-25T21:53:13.799Z,98887.70
2019-03-25T21:55:44.826Z,98888.88
2019-03-25T21:58:15.897Z,98887.63
2019-03-25T22:00:47.476Z,98886.36
2019-03-25T22:03:18.284Z,98895.51
2019-03-25T22:05:49.387Z,98902.02
2019-03-25T22:08:20.086Z,98895.26
2019-03-25T22:10:51.155Z,98907.42
2019-03-25T22:13:22.364Z,98911.55
2019-03-25T22:15:53.180Z,98914.76
2019-03-25T22:18:23.917Z,98915.08
2019-03-25T22:20:54.648Z,98907.61
2019-03-25T22:23:25.460Z,98902.41
2019-03-25T22:25:56.198Z,98913.95
2019-03-25T22:28:26.897Z,98911.36
2019-03-25T22:30:57.968Z,98915.03
2019-03-25T22:33:28.676Z,98920.17
2019-03-25T22:35:59.440Z,98916.16
2019-03-25T22:38:30.131Z,98916.29
2019-03-25T22:41:00.930Z,98922.12
2019-03-25T22:43:31.666Z,98919.60
2019-03-25T22:46:02.949Z,98929.32
2019-03-25T22:48:33.745Z,98937.03
2019-03-25T22:51:04.496Z,98937.84
2019-03-25T22:53:35.163Z,98936.59
2019-03-25T22:56:06.468Z,98939.35
2019-03-25T22:58:37.155Z,98940.95
2019-03-25T23:01:08.677Z,98945.42
2019-03-25T23:03:39.842Z,98956.19
2019-03-25T23:06:11.217Z,98961.22
2019-03-25T23:19:21.149Z,98969.59
2019-03-25T23:21:51.889Z,98973.59
2019-03-25T23:24:22.578Z,98964.78
2019-03-25T23:26:54.155Z,98973.67
2019-03-25T23:29:24.857Z,98979.75
2019-03-25T23:31:55.607Z,98977.70
2019-03-25T23:34:26.448Z,98974.16
2019-03-25T23:36:57.181Z,98977.61
2019-03-25T23:39:27.878Z,98982.73
2019-03-25T23:41:58.614Z,98993.13
2019-03-25T23:44:29.295Z,98991.44
2019-03-25T23:47:00.029Z,98996.72
2019-03-25T23:49:30.726Z,99003.43
2019-03-25T23:52:01.450Z,99000.49
2019-03-25T23:54:32.586Z,99016.03
2019-03-25T23:57:03.340Z,99009.65
2019-03-25T23:59:34.311Z,99008.48
